Time;durP1;ratioP1;P1;durP2;ratioP2;P2;SDS_P1;SDS_P2;PMS_P1;PMS_P2;Temp;Humidity;BMP_temperature;BMP_pressure;BME280_temperature;BME280_humidity;BME280_pressure;Samples;Min_cycle;Max_cycle;Signal;HPM_P1;HPM_P2
2021/12/02 00:02:07;;;;;;;7.57;1.75;;;5.60;99.90;;;;;;5140546;27;20094;-66
2021/12/02 00:04:34;;;;;;;7.22;1.55;;;5.60;99.90;;;;;;5151482;27;20055;-65
2021/12/02 00:07:00;;;;;;;6.25;1.42;;;5.50;99.90;;;;;;5153118;27;20129;-66
2021/12/02 00:09:25;;;;;;;9.05;1.73;;;5.50;99.90;;;;;;5120506;27;20060;-66
2021/12/02 00:11:51;;;;;;;11.50;1.52;;;5.40;99.90;;;;;;5133421;27;20051;-66
2021/12/02 00:14:23;;;;;;;7.32;1.50;;;5.50;99.90;;;;;;5152962;27;20039;-65
2021/12/02 00:17:03;;;;;;;6.30;1.77;;;5.50;99.90;;;;;;5137672;27;20486;-66
2021/12/02 00:22:14;;;;;;;7.82;1.08;;;5.30;99.90;;;;;;5131063;27;20107;-66
2021/12/02 00:24:47;;;;;;;8.13;1.30;;;5.30;99.90;;;;;;5132174;27;20039;-66
2021/12/02 00:27:14;;;;;;;4.03;1.23;;;5.40;99.90;;;;;;5139050;27;20062;-66
2021/12/02 00:29:43;;;;;;;6.38;0.93;;;5.40;99.90;;;;;;5113568;27;20065;-66
2021/12/02 00:32:10;;;;;;;7.53;1.35;;;5.30;99.90;;;;;;5112262;27;20070;-65
2021/12/02 00:34:42;;;;;;;4.78;1.20;;;5.30;99.90;;;;;;5130946;27;20432;-66
2021/12/02 00:37:08;;;;;;;9.52;1.83;;;5.30;99.90;;;;;;5110422;27;23186;-65
2021/12/02 00:39:34;;;;;;;6.43;1.50;;;5.30;99.90;;;;;;5131038;27;20043;-66
2021/12/02 00:42:01;;;;;;;5.25;1.70;;;5.30;99.90;;;;;;5131601;27;20112;-65
2021/12/02 00:44:29;;;;;;;8.20;1.60;;;5.30;99.90;;;;;;5113249;27;20043;-65
2021/12/02 00:46:55;;;;;;;8.52;1.40;;;5.20;99.90;;;;;;5146366;27;20130;-64
2021/12/02 00:49:21;;;;;;;5.28;1.20;;;5.20;99.90;;;;;;5133415;27;20067;-64
2021/12/02 00:51:52;;;;;;;1.38;0.60;;;5.10;99.90;;;;;;5147498;27;20066;-64
2021/12/02 00:54:19;;;;;;;6.95;0.93;;;5.00;99.90;;;;;;5130954;27;20121;-64
2021/12/02 00:56:44;;;;;;;7.03;1.10;;;5.00;99.90;;;;;;5112724;27;20043;-65
2021/12/02 00:59:10;;;;;;;6.05;0.70;;;5.00;99.90;;;;;;5130710;27;20058;-65
2021/12/02 01:01:38;;;;;;;4.13;0.95;;;4.90;99.90;;;;;;5135778;27;20038;-64
2021/12/02 01:04:11;;;;;;;5.22;0.90;;;4.90;99.90;;;;;;5147921;27;20038;-65
2021/12/02 01:06:38;;;;;;;4.65;0.60;;;5.00;99.90;;;;;;5146467;27;20047;-65
2021/12/02 01:09:05;;;;;;;6.30;1.73;;;4.90;99.90;;;;;;5140360;27;20047;-65
2021/12/02 01:11:31;;;;;;;5.82;1.27;;;5.00;99.90;;;;;;5135556;27;20047;-65
2021/12/02 01:13:57;;;;;;;9.88;1.67;;;5.00;99.90;;;;;;5143300;27;20039;-65
2021/12/02 01:16:23;;;;;;;4.00;0.90;;;5.00;99.90;;;;;;5151240;27;20073;-65
2021/12/02 01:18:49;;;;;;;6.43;1.90;;;4.80;99.90;;;;;;5136543;27;20046;-65
2021/12/02 01:21:18;;;;;;;7.60;0.80;;;4.80;99.90;;;;;;5113185;27;20047;-65
2021/12/02 01:23:48;;;;;;;9.07;1.58;;;4.90;99.90;;;;;;5112485;27;20047;-65
2021/12/02 01:26:16;;;;;;;7.55;1.17;;;4.90;99.90;;;;;;5142642;27;20058;-65
2021/12/02 01:28:43;;;;;;;3.50;1.40;;;4.80;99.90;;;;;;5142477;27;20062;-65
2021/12/02 01:31:11;;;;;;;8.10;1.55;;;4.90;99.90;;;;;;5151136;27;20047;-65
2021/12/02 01:33:38;;;;;;;9.93;1.83;;;5.00;99.90;;;;;;5143399;27;20074;-65
2021/12/02 01:36:06;;;;;;;3.35;1.00;;;5.00;99.90;;;;;;5133566;27;20070;-65
2021/12/02 01:38:33;;;;;;;7.03;0.90;;;5.00;99.90;;;;;;5111972;28;20529;-65
2021/12/02 01:41:01;;;;;;;6.47;0.90;;;4.80;99.90;;;;;;5131247;28;20036;-66
2021/12/02 01:43:48;;;;;;;3.10;0.55;;;4.90;99.90;;;;;;5128667;27;20127;-66
2021/12/02 01:46:18;;;;;;;0.57;0.40;;;4.80;99.90;;;;;;5152113;27;20055;-65
2021/12/02 01:48:49;;;;;;;7.22;1.10;;;4.70;99.90;;;;;;5141947;27;20106;-65
2021/12/02 01:51:19;;;;;;;3.03;0.60;;;4.70;99.90;;;;;;5129921;28;20049;-65
2021/12/02 01:53:50;;;;;;;3.95;1.25;;;4.70;99.90;;;;;;5122529;27;20554;-65
2021/12/02 01:56:17;;;;;;;4.60;0.60;;;4.60;99.90;;;;;;5151900;27;20378;-65
2021/12/02 01:58:46;;;;;;;6.00;1.02;;;4.60;99.90;;;;;;5129196;27;20133;-65
2021/12/02 02:01:25;;;;;;;6.63;0.77;;;4.50;99.90;;;;;;5134273;27;20371;-65
2021/12/02 02:03:52;;;;;;;5.88;0.60;;;4.50;99.90;;;;;;5129098;27;20053;-65
2021/12/02 02:06:29;;;;;;;11.65;1.17;;;4.40;99.90;;;;;;5105842;28;20509;-65
2021/12/02 02:08:59;;;;;;;2.53;0.47;;;4.40;99.90;;;;;;5130908;28;20122;-66
2021/12/02 02:11:29;;;;;;;0.75;0.50;;;4.40;99.90;;;;;;5108896;27;20123;-66
2021/12/02 02:13:57;;;;;;;1.10;0.43;;;4.40;99.90;;;;;;5139603;27;20055;-65
2021/12/02 02:16:23;;;;;;;2.85;0.50;;;4.30;99.90;;;;;;5144620;27;20047;-65
2021/12/02 02:18:49;;;;;;;2.70;0.57;;;4.30;99.90;;;;;;5119948;27;20055;-65
2021/12/02 02:21:17;;;;;;;1.70;0.55;;;4.20;99.90;;;;;;5133802;27;20044;-66
2021/12/02 02:23:49;;;;;;;1.50;0.73;;;4.20;99.90;;;;;;5141587;27;20046;-66
2021/12/02 02:26:21;;;;;;;1.65;0.60;;;4.20;99.90;;;;;;5153737;27;20079;-65
2021/12/02 02:28:47;;;;;;;0.28;0.28;;;4.30;99.90;;;;;;5118686;27;20058;-65
2021/12/02 02:31:13;;;;;;;5.43;0.50;;;4.30;99.90;;;;;;5150374;27;20042;-66
2021/12/02 02:33:39;;;;;;;0.75;0.50;;;4.30;99.90;;;;;;5136053;27;20062;-65
2021/12/02 02:36:07;;;;;;;1.55;0.50;;;4.20;99.90;;;;;;5138850;27;20047;-65
2021/12/02 02:38:34;;;;;;;7.43;0.30;;;4.20;99.90;;;;;;5141399;27;20099;-66
2021/12/02 02:41:01;;;;;;;3.05;0.60;;;4.00;99.90;;;;;;5137216;27;20050;-65
2021/12/02 02:43:27;;;;;;;5.50;0.73;;;4.00;99.90;;;;;;5134361;27;20047;-65
2021/12/02 02:45:53;;;;;;;2.00;0.65;;;4.10;99.90;;;;;;5134937;27;20437;-65
2021/12/02 02:48:19;;;;;;;5.55;1.63;;;4.20;99.90;;;;;;5132400;27;20043;-64
2021/12/02 02:50:45;;;;;;;3.97;0.60;;;4.30;99.90;;;;;;5143540;27;20125;-64
2021/12/02 02:53:16;;;;;;;8.88;0.73;;;4.30;99.90;;;;;;5135615;27;20042;-65
2021/12/02 02:55:47;;;;;;;5.30;0.60;;;4.30;99.90;;;;;;5127623;27;20078;-64
2021/12/02 03:00:47;;;;;;;5.88;0.98;;;4.30;99.90;;;;;;5121978;27;20050;-65
2021/12/02 03:08:21;;;;;;;4.88;0.98;;;4.20;99.90;;;;;;5138759;27;20047;-65
2021/12/02 03:10:52;;;;;;;5.18;0.70;;;4.20;99.90;;;;;;5115865;27;20070;-65
2021/12/02 03:13:35;;;;;;;5.88;0.73;;;4.30;99.90;;;;;;5128126;27;20051;-65
2021/12/02 03:18:45;;;;;;;3.72;0.50;;;4.20;99.90;;;;;;5126137;27;20054;-65
2021/12/02 03:21:21;;;;;;;3.13;0.65;;;4.20;99.90;;;;;;5124956;27;20036;-65
2021/12/02 03:23:48;;;;;;;5.25;0.80;;;4.20;99.90;;;;;;5136303;27;20566;-65
2021/12/02 03:26:14;;;;;;;5.63;0.88;;;4.20;99.90;;;;;;5154342;27;20078;-65
2021/12/02 03:28:40;;;;;;;4.60;0.80;;;4.20;99.90;;;;;;5140836;27;20761;-65
2021/12/02 03:31:11;;;;;;;3.67;0.60;;;4.10;99.90;;;;;;5113320;27;20051;-65
2021/12/02 03:33:37;;;;;;;3.42;0.90;;;4.10;99.90;;;;;;5113476;27;20047;-65
2021/12/02 03:36:02;;;;;;;6.53;0.88;;;4.00;99.90;;;;;;5135903;27;20070;-65
2021/12/02 03:38:28;;;;;;;2.50;0.73;;;4.00;99.90;;;;;;5134185;27;20082;-65
2021/12/02 03:40:53;;;;;;;3.95;1.00;;;4.10;99.90;;;;;;5135165;27;20089;-65
2021/12/02 03:43:19;;;;;;;4.63;0.88;;;4.10;99.90;;;;;;5129016;27;20043;-65
2021/12/02 03:45:45;;;;;;;3.25;0.80;;;4.10;99.90;;;;;;5119242;27;20050;-65
2021/12/02 03:48:10;;;;;;;2.95;0.90;;;4.10;99.90;;;;;;5129313;27;20047;-65
2021/12/02 03:50:36;;;;;;;9.25;1.50;;;4.10;99.90;;;;;;5139294;27;20401;-65
2021/12/02 03:53:01;;;;;;;5.47;1.10;;;4.20;99.90;;;;;;5135759;27;20397;-65
2021/12/02 03:55:27;;;;;;;4.85;0.80;;;4.20;99.90;;;;;;5145370;27;20043;-65
2021/12/02 03:57:52;;;;;;;1.05;0.50;;;4.30;99.90;;;;;;5152984;27;20110;-66
2021/12/02 04:00:18;;;;;;;1.27;0.40;;;4.30;99.90;;;;;;5151187;27;20053;-65
2021/12/02 04:02:43;;;;;;;3.13;0.50;;;4.40;99.90;;;;;;5130651;27;20118;-65
2021/12/02 04:05:09;;;;;;;1.58;0.60;;;4.30;99.90;;;;;;5132401;27;20039;-65
2021/12/02 04:07:35;;;;;;;4.55;0.50;;;4.30;99.90;;;;;;5106531;27;20389;-65
2021/12/02 04:10:01;;;;;;;1.02;0.50;;;4.40;99.90;;;;;;5131679;27;20072;-65
2021/12/02 04:12:45;;;;;;;1.25;0.28;;;4.40;99.90;;;;;;5131454;27;20066;-65
2021/12/02 04:15:14;;;;;;;3.95;0.73;;;4.40;99.90;;;;;;5153717;27;20082;-65
2021/12/02 04:17:41;;;;;;;2.22;0.50;;;4.40;99.90;;;;;;5123213;27;20055;-65
2021/12/02 04:20:11;;;;;;;1.52;0.55;;;4.40;99.90;;;;;;5132295;27;20036;-65
2021/12/02 04:22:37;;;;;;;6.30;0.60;;;4.40;99.90;;;;;;5123996;27;20042;-65
2021/12/02 04:25:04;;;;;;;6.57;0.82;;;4.40;99.90;;;;;;5125213;27;20132;-65
2021/12/02 04:27:29;;;;;;;1.42;0.60;;;4.40;99.90;;;;;;5131045;27;20051;-64
2021/12/02 04:29:55;;;;;;;3.28;0.82;;;4.40;99.90;;;;;;5132839;27;20064;-65
2021/12/02 04:32:20;;;;;;;1.55;0.50;;;4.40;99.90;;;;;;5131467;27;20043;-65
2021/12/02 04:34:46;;;;;;;1.45;0.35;;;4.40;99.90;;;;;;5116290;27;20046;-65
2021/12/02 04:37:11;;;;;;;4.80;0.60;;;4.40;99.90;;;;;;5152664;27;20051;-65
2021/12/02 04:39:37;;;;;;;1.17;0.77;;;4.40;99.90;;;;;;5140442;27;20055;-65
2021/12/02 04:42:03;;;;;;;1.00;0.65;;;4.40;99.90;;;;;;5137517;27;20039;-65
2021/12/02 04:44:28;;;;;;;1.80;0.50;;;4.40;99.90;;;;;;5137784;27;20386;-66
2021/12/02 04:46:54;;;;;;;1.95;0.80;;;4.40;99.90;;;;;;5124842;27;20040;-65
2021/12/02 04:49:19;;;;;;;2.17;0.60;;;4.50;99.90;;;;;;5130533;27;20043;-65
2021/12/02 04:51:45;;;;;;;3.72;0.65;;;4.40;99.90;;;;;;5131868;27;20047;-65
2021/12/02 04:54:11;;;;;;;1.92;0.60;;;4.40;99.90;;;;;;5143242;27;20030;-65
2021/12/02 04:56:37;;;;;;;2.60;0.63;;;4.40;99.90;;;;;;5120874;27;20085;-65
2021/12/02 04:59:03;;;;;;;5.28;0.73;;;4.40;99.90;;;;;;5139323;27;20050;-65
2021/12/02 05:01:29;;;;;;;2.03;0.60;;;4.30;99.90;;;;;;5114105;27;20479;-65
2021/12/02 05:03:54;;;;;;;2.72;0.70;;;4.40;99.90;;;;;;5129304;27;20051;-65
2021/12/02 05:06:20;;;;;;;2.05;0.68;;;4.40;99.90;;;;;;5152527;27;20118;-65
2021/12/02 05:08:45;;;;;;;3.78;0.80;;;4.40;99.90;;;;;;5122844;27;20046;-65
2021/12/02 05:11:11;;;;;;;1.77;0.55;;;4.40;99.90;;;;;;5152406;27;20043;-65
2021/12/02 05:13:36;;;;;;;9.23;0.50;;;4.40;99.90;;;;;;5148287;27;20046;-65
2021/12/02 05:16:02;;;;;;;3.05;1.00;;;4.40;99.90;;;;;;5127252;27;20043;-65
2021/12/02 05:18:28;;;;;;;1.42;0.52;;;4.40;99.90;;;;;;5142629;27;20099;-65
2021/12/02 05:20:54;;;;;;;4.05;0.68;;;4.40;99.90;;;;;;5113140;27;20126;-65
2021/12/02 05:23:19;;;;;;;3.72;0.43;;;4.40;99.90;;;;;;5127041;27;20043;-65
2021/12/02 05:25:45;;;;;;;0.50;0.45;;;4.30;99.90;;;;;;5131386;27;20085;-65
2021/12/02 05:28:13;;;;;;;1.20;0.70;;;4.30;99.90;;;;;;5112860;27;20055;-65
2021/12/02 05:30:38;;;;;;;2.75;0.60;;;4.20;99.90;;;;;;5132689;27;20444;-65
2021/12/02 05:33:04;;;;;;;2.40;0.50;;;4.10;99.90;;;;;;5130061;27;20474;-65
2021/12/02 05:35:29;;;;;;;3.92;0.80;;;4.10;99.90;;;;;;5151680;27;20538;-65
2021/12/02 05:37:55;;;;;;;4.90;0.63;;;4.10;99.90;;;;;;5133222;27;20042;-65
2021/12/02 05:40:20;;;;;;;2.30;0.68;;;4.20;99.90;;;;;;5151835;27;20126;-65
2021/12/02 05:42:46;;;;;;;3.90;0.90;;;4.20;99.90;;;;;;5151834;27;20046;-66
2021/12/02 05:45:11;;;;;;;3.25;1.13;;;4.10;99.90;;;;;;5132447;27;20051;-65
2021/12/02 05:47:37;;;;;;;1.35;0.70;;;4.20;99.90;;;;;;5118681;27;20051;-65
2021/12/02 05:50:03;;;;;;;1.65;1.20;;;4.20;99.90;;;;;;5125733;27;20043;-65
2021/12/02 05:52:29;;;;;;;2.45;0.40;;;4.20;99.90;;;;;;5105039;27;20089;-65
2021/12/02 05:54:54;;;;;;;6.60;0.80;;;4.30;99.90;;;;;;5131679;27;20478;-64
2021/12/02 05:57:20;;;;;;;1.33;0.47;;;4.20;99.90;;;;;;5134572;27;20062;-65
2021/12/02 05:59:46;;;;;;;2.20;0.60;;;4.20;99.90;;;;;;5152276;27;20054;-65
2021/12/02 06:02:11;;;;;;;2.20;0.30;;;4.30;99.90;;;;;;5149242;27;20039;-65
2021/12/02 06:04:39;;;;;;;2.05;0.70;;;4.30;99.90;;;;;;5155374;27;20041;-65
2021/12/02 06:07:05;;;;;;;2.35;0.40;;;4.20;99.90;;;;;;5141646;27;20506;-65
2021/12/02 06:09:31;;;;;;;0.82;0.40;;;4.20;99.90;;;;;;5132993;27;20039;-65
2021/12/02 06:11:57;;;;;;;4.40;0.95;;;4.30;99.90;;;;;;5135050;27;20047;-65
2021/12/02 06:14:22;;;;;;;4.75;0.70;;;4.30;99.90;;;;;;5110706;27;20049;-65
2021/12/02 06:16:48;;;;;;;2.08;0.40;;;4.30;99.90;;;;;;5125917;27;20158;-65
2021/12/02 06:19:13;;;;;;;5.05;0.65;;;4.40;99.90;;;;;;5134248;27;20047;-65
2021/12/02 06:21:39;;;;;;;4.30;0.90;;;4.30;99.90;;;;;;5115242;27;20047;-64
2021/12/02 06:24:06;;;;;;;3.80;0.68;;;4.30;99.90;;;;;;5155660;27;20077;-65
2021/12/02 06:26:32;;;;;;;2.85;0.47;;;4.40;99.90;;;;;;5150785;27;20075;-65
2021/12/02 06:28:58;;;;;;;1.38;0.80;;;4.40;99.90;;;;;;5150141;27;20389;-65
2021/12/02 06:31:24;;;;;;;4.75;0.80;;;4.40;99.90;;;;;;5133925;27;20126;-65
2021/12/02 06:33:50;;;;;;;6.18;0.77;;;4.40;99.90;;;;;;5128096;27;20115;-65
2021/12/02 06:36:15;;;;;;;3.33;0.73;;;4.50;99.90;;;;;;5135140;27;20051;-65
2021/12/02 06:38:42;;;;;;;5.47;0.90;;;4.50;99.90;;;;;;5113176;27;20090;-65
2021/12/02 06:41:08;;;;;;;4.25;1.25;;;4.50;99.90;;;;;;5140436;27;20567;-65
2021/12/02 06:43:33;;;;;;;7.18;1.05;;;4.50;99.90;;;;;;5132643;27;20079;-65
2021/12/02 06:45:59;;;;;;;1.02;0.80;;;4.50;99.90;;;;;;5134724;27;20073;-64
2021/12/02 06:48:25;;;;;;;3.53;0.60;;;4.50;99.90;;;;;;5127606;27;20055;-65
2021/12/02 06:50:51;;;;;;;3.95;0.60;;;4.60;99.90;;;;;;5134503;27;20466;-65
2021/12/02 06:53:17;;;;;;;2.50;0.73;;;4.50;99.90;;;;;;5132171;27;20134;-65
2021/12/02 06:55:43;;;;;;;4.45;0.68;;;4.50;99.90;;;;;;5139953;27;20036;-65
2021/12/02 06:58:09;;;;;;;6.28;1.25;;;4.50;99.90;;;;;;5146303;27;20047;-65
2021/12/02 07:00:35;;;;;;;5.03;0.65;;;4.50;99.90;;;;;;5128420;27;20046;-65
2021/12/02 07:03:01;;;;;;;1.88;0.52;;;4.50;99.90;;;;;;5154032;27;20035;-65
2021/12/02 07:05:29;;;;;;;2.63;0.68;;;4.40;99.90;;;;;;5139477;27;20066;-65
2021/12/02 07:07:55;;;;;;;4.35;1.35;;;4.40;99.90;;;;;;5148272;27;20495;-65
2021/12/02 07:10:24;;;;;;;8.43;1.40;;;4.40;99.90;;;;;;5132886;27;20111;-65
2021/12/02 07:12:55;;;;;;;5.53;3.72;;;4.40;99.90;;;;;;5135321;27;20110;-65
2021/12/02 07:15:26;;;;;;;5.25;1.98;;;4.40;99.90;;;;;;5142147;27;20043;-65
2021/12/02 07:17:56;;;;;;;6.53;1.35;;;4.40;99.90;;;;;;5094937;28;20051;-65
2021/12/02 07:20:29;;;;;;;7.55;1.58;;;4.30;99.90;;;;;;5113454;27;20359;-66
2021/12/02 07:22:55;;;;;;;7.95;2.15;;;4.40;99.90;;;;;;5130787;27;20107;-66
2021/12/02 07:25:21;;;;;;;8.32;2.35;;;4.30;99.90;;;;;;5110644;27;20431;-66
2021/12/02 07:27:47;;;;;;;3.47;1.10;;;4.40;99.90;;;;;;5117433;27;20039;-65
2021/12/02 07:30:13;;;;;;;2.17;0.73;;;4.40;99.90;;;;;;5141677;27;20068;-66
2021/12/02 07:32:40;;;;;;;6.95;1.00;;;4.30;99.90;;;;;;5132798;27;20120;-66
2021/12/02 07:35:12;;;;;;;2.03;0.93;;;4.30;99.90;;;;;;5131668;27;20491;-65
2021/12/02 07:37:47;;;;;;;4.60;0.98;;;4.20;99.90;;;;;;5134644;27;20031;-65
2021/12/02 07:40:13;;;;;;;7.85;1.35;;;4.20;99.90;;;;;;5115990;27;20043;-66
2021/12/02 07:42:39;;;;;;;3.85;0.93;;;4.30;99.90;;;;;;5123450;27;20069;-66
2021/12/02 07:45:06;;;;;;;8.02;1.30;;;4.30;99.90;;;;;;5132456;27;20059;-66
2021/12/02 07:47:33;;;;;;;12.90;1.40;;;4.30;99.90;;;;;;5130065;27;20528;-65
2021/12/02 07:49:59;;;;;;;2.08;0.55;;;4.30;99.90;;;;;;5129764;27;20057;-66
2021/12/02 07:52:26;;;;;;;3.85;0.90;;;4.20;99.90;;;;;;5132302;27;20397;-66
2021/12/02 07:54:53;;;;;;;3.53;1.42;;;4.20;99.90;;;;;;5124058;27;20085;-66
2021/12/02 07:57:19;;;;;;;5.30;0.70;;;4.30;99.90;;;;;;5114035;27;20069;-66
2021/12/02 07:59:49;;;;;;;3.70;0.82;;;4.30;99.90;;;;;;5113821;27;20550;-66
2021/12/02 08:02:16;;;;;;;2.30;1.17;;;4.20;99.90;;;;;;5124592;27;20486;-66
2021/12/02 08:04:42;;;;;;;5.82;1.38;;;4.20;99.90;;;;;;5135792;27;20039;-66
2021/12/02 08:07:08;;;;;;;4.03;1.45;;;4.20;99.90;;;;;;5110195;27;20078;-66
2021/12/02 08:09:34;;;;;;;5.05;1.35;;;4.20;99.90;;;;;;5129449;27;20498;-66
2021/12/02 08:12:00;;;;;;;7.03;1.35;;;4.30;99.90;;;;;;5110078;27;20539;-66
2021/12/02 08:14:26;;;;;;;6.40;1.45;;;4.30;99.90;;;;;;5114359;27;20070;-67
2021/12/02 08:16:52;;;;;;;3.42;1.00;;;4.40;99.90;;;;;;5145444;27;20046;-66
2021/12/02 08:19:19;;;;;;;4.88;1.67;;;4.30;99.90;;;;;;5131518;27;20061;-66
2021/12/02 08:21:45;;;;;;;4.13;1.35;;;4.30;99.90;;;;;;5106461;27;20126;-66
2021/12/02 08:24:10;;;;;;;3.30;1.13;;;4.40;99.90;;;;;;5124632;27;21500;-66
2021/12/02 08:26:36;;;;;;;3.03;1.02;;;4.40;99.90;;;;;;5124219;27;20096;-66
2021/12/02 08:29:03;;;;;;;2.83;0.90;;;4.40;99.90;;;;;;5106303;27;20078;-67
2021/12/02 08:31:29;;;;;;;3.20;1.38;;;4.40;99.90;;;;;;5123569;27;20059;-66
2021/12/02 08:33:55;;;;;;;3.00;1.10;;;4.40;99.90;;;;;;5116952;27;20079;-66
2021/12/02 08:36:24;;;;;;;7.82;1.65;;;4.50;99.90;;;;;;5121892;27;20043;-66
2021/12/02 08:38:50;;;;;;;6.43;1.58;;;4.50;99.90;;;;;;5119420;27;20038;-66
2021/12/02 08:41:18;;;;;;;2.30;1.33;;;4.50;99.90;;;;;;5105103;27;20052;-66
2021/12/02 08:43:45;;;;;;;6.05;1.38;;;4.50;99.90;;;;;;5118935;27;20047;-66
2021/12/02 08:46:11;;;;;;;7.15;1.55;;;4.50;99.90;;;;;;5125302;27;20410;-66
2021/12/02 08:48:37;;;;;;;3.67;1.33;;;4.50;99.90;;;;;;5126358;27;20043;-66
2021/12/02 08:51:02;;;;;;;1.95;1.20;;;4.50;99.90;;;;;;5129602;27;20042;-66
2021/12/02 08:53:28;;;;;;;3.83;1.10;;;4.50;99.90;;;;;;5125599;27;20039;-66
2021/12/02 08:55:53;;;;;;;3.90;1.40;;;4.50;99.90;;;;;;5122646;27;20477;-66
2021/12/02 08:58:19;;;;;;;4.38;1.67;;;4.50;99.90;;;;;;5131205;27;20043;-66
2021/12/02 09:00:44;;;;;;;2.30;1.00;;;4.50;99.90;;;;;;5133121;27;20043;-66
2021/12/02 09:03:14;;;;;;;7.20;1.50;;;4.50;99.90;;;;;;5152763;27;20046;-67
2021/12/02 09:05:40;;;;;;;5.78;1.40;;;4.50;99.90;;;;;;5125488;27;20440;-67
2021/12/02 09:08:06;;;;;;;7.05;1.58;;;4.50;99.90;;;;;;5109231;27;20096;-66
2021/12/02 09:10:34;;;;;;;5.30;1.25;;;4.60;99.90;;;;;;5122551;27;20031;-67
2021/12/02 09:12:59;;;;;;;3.47;1.35;;;4.60;99.90;;;;;;5120084;27;20051;-66
2021/12/02 09:15:25;;;;;;;3.65;1.83;;;4.50;99.90;;;;;;5137504;27;20129;-66
2021/12/02 09:17:51;;;;;;;6.22;1.70;;;4.40;99.90;;;;;;5126089;27;20054;-66
2021/12/02 09:20:17;;;;;;;2.80;1.75;;;4.50;99.90;;;;;;5128485;27;20051;-66
2021/12/02 09:22:44;;;;;;;3.58;1.52;;;4.50;99.90;;;;;;5140037;27;20039;-66
2021/12/02 09:25:11;;;;;;;5.03;2.10;;;4.50;99.90;;;;;;5130860;27;20042;-66
2021/12/02 09:27:37;;;;;;;9.73;2.55;;;4.50;99.90;;;;;;5120767;27;20047;-67
2021/12/02 09:30:04;;;;;;;11.00;2.38;;;4.50;99.90;;;;;;5098599;28;20541;-67
2021/12/02 09:32:31;;;;;;;5.68;1.70;;;4.50;99.90;;;;;;5110945;27;20039;-67
2021/12/02 09:34:56;;;;;;;6.78;2.00;;;4.50;99.90;;;;;;5145585;27;20038;-67
2021/12/02 09:37:22;;;;;;;10.60;1.67;;;4.50;99.90;;;;;;5138031;27;20418;-67
2021/12/02 09:39:48;;;;;;;8.65;1.48;;;4.50;99.90;;;;;;5126430;27;20066;-66
2021/12/02 09:42:14;;;;;;;2.92;1.35;;;4.60;99.90;;;;;;5146131;27;20130;-67
2021/12/02 09:44:43;;;;;;;5.32;2.05;;;4.70;99.90;;;;;;5130823;28;20051;-67
2021/12/02 09:47:08;;;;;;;8.85;2.10;;;4.70;99.90;;;;;;5113628;27;20420;-67
2021/12/02 09:49:34;;;;;;;3.20;1.75;;;4.80;99.90;;;;;;5133477;27;20557;-67
2021/12/02 09:52:03;;;;;;;9.07;2.72;;;4.80;99.90;;;;;;5129879;28;20386;-67
2021/12/02 09:56:59;;;;;;;11.23;3.85;;;5.00;99.90;;;;;;5132854;27;20100;-67
2021/12/02 09:59:33;;;;;;;7.38;2.72;;;5.10;99.90;;;;;;5116249;27;20042;-67
2021/12/02 10:02:03;;;;;;;6.90;1.30;;;5.30;99.90;;;;;;5141532;27;20105;-67
2021/12/02 10:04:30;;;;;;;4.57;1.52;;;5.60;99.90;;;;;;5126312;27;20039;-67
2021/12/02 10:07:33;;;;;;;7.55;2.47;;;5.80;99.90;;;;;;5128165;27;20080;-67
2021/12/02 10:10:24;;;;;;;9.30;1.20;;;5.70;99.90;;;;;;5126807;27;20050;-66
2021/12/02 10:13:26;;;;;;;2.83;0.90;;;5.60;99.90;;;;;;5123919;27;20086;-67
2021/12/02 10:16:19;;;;;;;6.90;1.20;;;5.40;99.90;;;;;;5130778;27;20050;-67
2021/12/02 10:19:03;;;;;;;7.82;1.23;;;5.60;99.90;;;;;;5117036;27;20047;-66
2021/12/02 10:21:43;;;;;;;3.83;0.90;;;5.50;99.90;;;;;;5129271;27;20069;-67
2021/12/02 10:24:19;;;;;;;3.45;0.70;;;5.30;99.90;;;;;;5111068;27;20043;-66
2021/12/02 10:26:57;;;;;;;1.65;0.75;;;5.30;99.90;;;;;;5136838;27;20134;-67
2021/12/02 10:29:27;;;;;;;3.28;1.33;;;5.30;99.90;;;;;;5150962;27;20457;-67
2021/12/02 10:32:14;;;;;;;2.88;1.50;;;5.30;99.90;;;;;;5144919;27;20817;-67
2021/12/02 10:35:01;;;;;;;1.33;0.90;;;5.20;99.90;;;;;;5113172;28;20421;-66
2021/12/02 10:37:30;;;;;;;4.60;1.38;;;5.10;99.90;;;;;;5130168;28;20053;-66
2021/12/02 10:40:19;;;;;;;6.13;1.48;;;5.00;99.90;;;;;;5130548;28;20401;-66
2021/12/02 10:42:46;;;;;;;7.18;2.50;;;5.10;99.90;;;;;;5128486;27;20478;-67
2021/12/02 10:45:23;;;;;;;5.88;2.63;;;5.20;99.90;;;;;;5130758;27;20047;-67
2021/12/02 10:47:50;;;;;;;4.03;1.45;;;5.20;99.90;;;;;;5118716;27;20489;-67
2021/12/02 10:50:17;;;;;;;4.40;1.80;;;5.20;99.90;;;;;;5134324;27;20050;-67
2021/12/02 10:52:43;;;;;;;5.65;3.13;;;5.30;99.90;;;;;;5131382;27;20090;-66
2021/12/02 10:55:22;;;;;;;4.28;1.23;;;5.30;99.90;;;;;;5124220;27;20125;-66
2021/12/02 10:57:51;;;;;;;2.30;0.68;;;5.40;99.90;;;;;;5135482;27;20042;-66
2021/12/02 11:00:20;;;;;;;6.28;1.73;;;5.30;99.90;;;;;;5110359;27;20134;-65
2021/12/02 11:02:49;;;;;;;3.50;1.10;;;5.40;99.90;;;;;;5133091;27;20037;-66
2021/12/02 11:05:20;;;;;;;5.20;2.35;;;5.40;99.90;;;;;;5113385;27;20107;-66
2021/12/02 11:08:13;;;;;;;4.25;1.92;;;5.50;99.90;;;;;;5134005;27;20047;-67
2021/12/02 11:10:46;;;;;;;4.80;1.13;;;5.50;99.90;;;;;;5128658;27;20043;-66
2021/12/02 11:13:25;;;;;;;5.82;1.00;;;5.50;99.90;;;;;;5131900;27;20552;-67
2021/12/02 11:15:52;;;;;;;4.82;0.80;;;5.50;99.90;;;;;;5129977;27;20126;-66
2021/12/02 11:18:21;;;;;;;7.03;1.00;;;5.60;99.90;;;;;;5122665;27;20074;-67
2021/12/02 11:20:57;;;;;;;5.88;1.23;;;5.60;99.90;;;;;;5111632;27;20062;-66
2021/12/02 11:23:29;;;;;;;1.52;0.80;;;5.70;99.90;;;;;;5114738;27;20487;-67
2021/12/02 11:25:59;;;;;;;4.30;1.65;;;5.80;99.90;;;;;;5112515;27;20103;-67
2021/12/02 11:28:28;;;;;;;5.00;1.17;;;5.90;99.90;;;;;;5132197;27;20050;-67
2021/12/02 11:30:56;;;;;;;4.28;1.48;;;6.10;99.90;;;;;;5133692;27;20043;-67
2021/12/02 11:33:29;;;;;;;2.60;1.02;;;6.30;99.90;;;;;;5145402;27;20058;-67
2021/12/02 11:35:55;;;;;;;4.03;0.98;;;6.60;99.90;;;;;;5123046;27;20055;-67
2021/12/02 11:38:25;;;;;;;4.15;0.90;;;6.90;99.90;;;;;;5140897;27;20091;-67
2021/12/02 11:41:02;;;;;;;4.20;1.17;;;7.20;99.90;;;;;;5133908;27;20050;-67
2021/12/02 11:43:36;;;;;;;4.70;1.35;;;7.50;99.90;;;;;;5109716;27;20090;-67
2021/12/02 11:46:04;;;;;;;2.80;1.05;;;7.60;99.90;;;;;;5132691;27;20039;-67
2021/12/02 11:48:33;;;;;;;5.75;1.25;;;7.70;99.90;;;;;;5132620;27;20039;-67
2021/12/02 11:51:01;;;;;;;6.70;1.13;;;8.00;99.90;;;;;;5113379;27;20039;-67
2021/12/02 11:53:26;;;;;;;3.30;1.15;;;8.20;99.90;;;;;;5137625;27;20045;-67
2021/12/02 11:55:55;;;;;;;4.00;1.08;;;8.20;99.90;;;;;;5144008;27;20035;-67
2021/12/02 11:58:21;;;;;;;4.38;2.70;;;8.20;99.90;;;;;;5130484;27;20478;-67
2021/12/02 12:00:47;;;;;;;7.47;2.22;;;8.50;99.90;;;;;;5122116;27;20034;-67
2021/12/02 12:03:19;;;;;;;6.65;1.90;;;8.50;99.90;;;;;;5151331;27;20609;-67
2021/12/02 12:06:06;;;;;;;3.33;1.15;;;8.60;99.90;;;;;;5150697;27;20085;-67
2021/12/02 12:08:45;;;;;;;5.30;1.35;;;8.70;99.90;;;;;;5131279;27;20078;-67
2021/12/02 12:11:20;;;;;;;10.63;2.75;;;8.80;99.90;;;;;;5130498;27;20093;-67
2021/12/02 12:13:47;;;;;;;6.10;2.95;;;8.80;99.90;;;;;;5129817;27;20051;-67
2021/12/02 12:16:25;;;;;;;6.85;2.17;;;8.80;99.90;;;;;;5127341;27;20426;-67
2021/12/02 12:18:56;;;;;;;6.40;1.15;;;8.80;99.90;;;;;;5130689;27;20095;-67
2021/12/02 12:21:41;;;;;;;4.22;1.45;;;8.90;99.90;;;;;;5113753;27;20058;-67
2021/12/02 12:24:08;;;;;;;5.03;1.65;;;8.80;99.90;;;;;;5132068;27;20560;-67
2021/12/02 12:26:40;;;;;;;6.72;2.10;;;8.80;99.90;;;;;;5111294;27;20055;-67
2021/12/02 12:29:09;;;;;;;3.20;0.98;;;8.70;99.90;;;;;;5132272;27;20479;-67
2021/12/02 12:32:05;;;;;;;4.50;1.30;;;8.80;99.90;;;;;;5129173;27;20043;-67
2021/12/02 12:34:32;;;;;;;5.78;1.50;;;8.70;99.90;;;;;;5131993;27;20090;-67
2021/12/02 12:37:21;;;;;;;2.83;0.90;;;8.70;99.90;;;;;;5122049;27;20488;-67
2021/12/02 12:40:07;;;;;;;4.97;1.15;;;8.70;99.90;;;;;;5134349;27;20409;-67
2021/12/02 12:42:33;;;;;;;4.18;0.90;;;8.70;99.90;;;;;;5118224;27;20055;-67
2021/12/02 12:45:00;;;;;;;3.70;1.33;;;8.70;99.90;;;;;;5131343;27;20543;-67
2021/12/02 12:47:41;;;;;;;22.58;3.35;;;8.70;99.90;;;;;;5131830;27;20126;-67
2021/12/02 12:50:23;;;;;;;6.97;1.85;;;8.90;99.90;;;;;;5119051;27;20055;-67
2021/12/02 12:53:04;;;;;;;9.00;1.10;;;9.10;99.90;;;;;;5114790;27;20043;-67
2021/12/02 12:55:32;;;;;;;4.28;0.88;;;9.30;99.90;;;;;;5113106;27;20453;-67
2021/12/02 12:58:26;;;;;;;4.03;1.77;;;9.40;99.90;;;;;;5135401;27;20083;-67
2021/12/02 13:00:56;;;;;;;;;;;9.60;99.90;;;;;;5133587;27;20047;-67
2021/12/02 13:03:30;;;;;;;5.72;1.88;;;9.60;99.90;;;;;;5128897;27;19926;-67
2021/12/02 13:06:21;;;;;;;5.05;1.77;;;9.80;99.90;;;;;;5152768;27;20051;-67
2021/12/02 13:08:54;;;;;;;6.47;1.00;;;10.00;99.90;;;;;;5128869;27;20374;-67
2021/12/02 13:11:30;;;;;;;6.78;0.80;;;10.00;99.90;;;;;;5110288;27;20104;-67
2021/12/02 13:13:57;;;;;;;6.90;1.60;;;10.30;99.90;;;;;;5112744;27;20042;-67
2021/12/02 13:16:22;;;;;;;5.10;1.55;;;10.30;99.90;;;;;;5113118;27;20079;-67
2021/12/02 13:19:10;;;;;;;6.57;2.13;;;10.40;99.90;;;;;;5138460;27;20489;-67
2021/12/02 13:21:36;;;;;;;5.15;1.33;;;10.50;99.90;;;;;;5151160;27;20081;-67
2021/12/02 13:24:05;;;;;;;3.28;0.95;;;10.50;99.90;;;;;;5132009;27;20054;-67